Time,TemperatureF,DewpointF,PressureIn,WindDirection,WindDirectionDegrees,WindSpeedMPH,WindSpeedGustMPH,Humidity,HourlyPrecipIn,Conditions,Clouds,dailyrainin,SoftwareType,DateUTC
2013-05-22 00:01:00,70.6,0.0,29.71,SSE,147,4.6,4.6,0,0.00,RA,,0.00,WeatherDisplay:10.37,2013-05-22 05:01:00,
2013-05-22 00:06:00,70.7,0.0,29.71,South,175,5.8,5.8,0,0.00,RA,,0.00,WeatherDisplay:10.37,2013-05-22 05:06:00,
2013-05-22 00:11:00,70.5,0.0,29.70,South,175,3.4,0.0,0,0.00,CLR,,0.00,WeatherDisplay:10.37,2013-05-22 05:11:00,
2013-05-22 00:16:00,70.7,0.0,29.70,SSE,161,6.9,6.9,0,0.00,CLR,,0.00,WeatherDisplay:10.37,2013-05-22 05:16:00,
2013-05-22 00:21:00,70.5,0.0,29.71,South,172,8.1,8.1,0,0.00,CLR,,0.00,WeatherDisplay:10.37,2013-05-22 05:21:00,
2013-05-22 00:26:00,70.7,0.0,29.71,SE,145,5.8,5.8,0,0.00,CLR,,0.00,WeatherDisplay:10.37,2013-05-22 05:26:00,
2013-05-22 00:31:00,70.9,0.0,29.71,ESE,113,3.5,3.5,0,0.00,CLR,,0.00,WeatherDisplay:10.37,2013-05-22 05:31:00,
2013-05-22 00:36:00,70.8,0.0,29.71,ESE,113,8.1,8.1,0,0.00,CLR,,0.00,WeatherDisplay:10.37,2013-05-22 05:36:00,
2013-05-22 00:41:00,70.7,0.0,29.71,SE,144,11.5,11.5,0,0.00,CLR,,0.00,WeatherDisplay:10.37,2013-05-22 05:41:00,
2013-05-22 00:46:00,70.6,0.0,29.70,SSW,193,7.5,7.5,0,0.00,CLR,,0.00,WeatherDisplay:10.37,2013-05-22 05:46:00,
2013-05-22 00:51:00,70.5,0.0,29.70,SE,131,4.6,4.6,0,0.00,CLR,,0.00,WeatherDisplay:10.37,2013-05-22 05:51:00,
2013-05-22 00:56:00,70.4,0.0,29.70,SE,124,5.8,5.8,0,0.00,CLR,,0.00,WeatherDisplay:10.37,2013-05-22 05:56:00,
2013-05-22 01:01:00,70.4,0.0,29.70,East,86,9.2,9.2,0,0.00,CLR,,0.00,WeatherDisplay:10.37,2013-05-22 06:01:00,
2013-05-22 01:06:00,70.3,0.0,29.71,South,174,10.4,10.4,0,0.00,CLR,,0.00,WeatherDisplay:10.37,2013-05-22 06:06:00,
2013-05-22 01:11:00,70.2,0.0,29.70,SSW,195,6.9,6.9,0,0.00,CLR,,0.00,WeatherDisplay:10.37,2013-05-22 06:11:00,
2013-05-22 01:16:00,70.1,0.0,29.70,South,179,8.1,8.1,0,0.00,CLR,,0.00,WeatherDisplay:10.37,2013-05-22 06:16:00,
2013-05-22 01:21:00,70.1,0.0,29.70,South,185,9.2,9.2,0,0.00,CLR,,0.00,WeatherDisplay:10.37,2013-05-22 06:21:00,
2013-05-22 01:26:00,69.8,0.0,29.70,SSE,162,13.8,13.8,0,0.00,CLR,,0.00,WeatherDisplay:10.37,2013-05-22 06:26:00,
2013-05-22 01:31:00,69.8,0.0,29.70,SSW,199,10.4,10.4,0,0.00,CLR,,0.00,WeatherDisplay:10.37,2013-05-22 06:31:00,
2013-05-22 01:36:00,69.4,0.0,29.70,SE,140,9.4,9.4,0,0.00,CLR,,0.00,WeatherDisplay:10.37,2013-05-22 06:36:00,
2013-05-22 01:41:00,69.4,0.0,29.70,SE,137,6.9,6.9,0,0.00,CLR,,0.00,WeatherDisplay:10.37,2013-05-22 06:41:00,
2013-05-22 01:46:00,69.4,0.0,29.70,SSE,157,10.4,10.4,0,0.00,CLR,,0.00,WeatherDisplay:10.37,2013-05-22 06:46:00,
2013-05-22 01:51:00,69.2,0.0,29.70,SSW,196,11.5,11.5,0,0.00,CLR,,0.00,WeatherDisplay:10.37,2013-05-22 06:51:00,
2013-05-22 01:56:00,68.9,0.0,29.70,SSW,200,8.1,8.1,0,0.00,CLR,,0.00,WeatherDisplay:10.37,2013-05-22 06:56:00,
2013-05-22 02:01:00,68.6,0.0,29.69,SSW,202,9.2,9.2,0,0.00,CLR,,0.00,WeatherDisplay:10.37,2013-05-22 07:01:00,
2013-05-22 02:06:00,68.4,0.0,29.69,ESE,104,6.9,6.9,0,0.00,CLR,,0.00,WeatherDisplay:10.37,2013-05-22 07:06:00,
2013-05-22 02:11:00,68.4,0.0,29.69,SSE,147,4.2,4.2,0,0.00,CLR,,0.00,WeatherDisplay:10.37,2013-05-22 07:11:00,
2013-05-22 02:16:00,68.4,0.0,29.69,SE,138,8.1,8.1,0,0.00,CLR,,0.00,WeatherDisplay:10.37,2013-05-22 07:16:00,
2013-05-22 02:21:00,68.4,0.0,29.69,SE,137,10.4,10.4,0,0.00,CLR,,0.00,WeatherDisplay:10.37,2013-05-22 07:21:00,
2013-05-22 02:26:00,68.5,0.0,29.69,SE,136,4.8,4.8,0,0.00,CLR,,0.00,WeatherDisplay:10.37,2013-05-22 07:26:00,
2013-05-22 02:31:00,68.5,0.0,29.69,SE,124,10.4,10.4,0,0.00,CLR,,0.00,WeatherDisplay:10.37,2013-05-22 07:31:00,
2013-05-22 02:36:00,68.5,0.0,29.69,South,169,8.1,8.1,0,0.00,CLR,,0.00,WeatherDisplay:10.37,2013-05-22 07:36:00,
2013-05-22 02:41:00,68.4,0.0,29.68,South,181,6.9,6.9,0,0.00,CLR,,0.00,WeatherDisplay:10.37,2013-05-22 07:41:00,
2013-05-22 02:46:00,68.2,0.0,29.68,South,174,11.5,11.5,0,0.00,CLR,,0.00,WeatherDisplay:10.37,2013-05-22 07:46:00,
2013-05-22 02:51:00,68.2,0.0,29.68,South,179,9.2,9.2,0,0.00,CLR,,0.00,WeatherDisplay:10.37,2013-05-22 07:51:00,
2013-05-22 02:56:00,68.1,0.0,29.68,East,88,5.8,5.8,0,0.00,CLR,,0.00,WeatherDisplay:10.37,2013-05-22 07:56:00,
2013-05-22 03:01:00,68.1,0.0,29.68,SSW,200,9.2,9.2,0,0.00,CLR,,0.00,WeatherDisplay:10.37,2013-05-22 08:01:00,
2013-05-22 03:06:00,68.1,0.0,29.68,SW,224,8.1,8.1,0,0.00,CLR,,0.00,WeatherDisplay:10.37,2013-05-22 08:06:00,
2013-05-22 03:11:00,68.0,0.0,29.68,WSW,241,9.2,9.2,0,0.00,CLR,,0.00,WeatherDisplay:10.37,2013-05-22 08:11:00,
2013-05-22 03:16:00,67.9,0.0,29.68,SSW,199,16.1,16.1,0,0.00,CLR,,0.00,WeatherDisplay:10.37,2013-05-22 08:16:00,
2013-05-22 03:21:00,67.8,0.0,29.68,SE,134,8.1,8.1,0,0.00,CLR,,0.00,WeatherDisplay:10.37,2013-05-22 08:21:00,
2013-05-22 03:26:00,67.7,0.0,29.69,South,171,11.5,11.5,0,0.00,CLR,,0.00,WeatherDisplay:10.37,2013-05-22 08:26:00,
2013-05-22 03:31:00,67.7,0.0,29.69,South,176,12.7,12.7,0,0.00,CLR,,0.00,WeatherDisplay:10.37,2013-05-22 08:31:00,
2013-05-22 03:36:00,67.6,0.0,29.69,SSW,210,11.5,11.5,0,0.00,CLR,,0.00,WeatherDisplay:10.37,2013-05-22 08:36:00,
2013-05-22 03:41:00,67.4,0.0,29.69,SSE,167,10.4,10.4,0,0.00,CLR,,0.00,WeatherDisplay:10.37,2013-05-22 08:41:00,
2013-05-22 03:46:00,67.4,0.0,29.69,South,182,5.8,5.8,0,0.00,CLR,,0.00,WeatherDisplay:10.37,2013-05-22 08:46:00,
2013-05-22 03:51:00,67.4,0.0,29.69,South,181,8.1,8.1,0,0.00,CLR,,0.00,WeatherDisplay:10.37,2013-05-22 08:51:00,
2013-05-22 03:56:00,67.4,0.0,29.69,South,182,11.5,11.5,0,0.00,CLR,,0.00,WeatherDisplay:10.37,2013-05-22 08:56:00,
2013-05-22 04:01:00,67.3,0.0,29.69,SSW,210,9.2,9.2,0,0.00,CLR,,0.00,WeatherDisplay:10.37,2013-05-22 09:01:00,
2013-05-22 04:06:00,67.3,0.0,29.69,West,274,3.5,3.5,0,0.00,CLR,,0.00,WeatherDisplay:10.37,2013-05-22 09:06:00,
2013-05-22 04:11:00,67.3,0.0,29.69,SE,145,6.9,6.9,0,0.00,CLR,,0.00,WeatherDisplay:10.37,2013-05-22 09:11:00,
2013-05-22 04:16:00,67.2,0.0,29.69,SW,234,8.1,8.1,0,0.00,CLR,,0.00,WeatherDisplay:10.37,2013-05-22 09:16:00,
2013-05-22 04:21:00,67.2,0.0,29.69,SSW,198,8.1,8.1,0,0.00,CLR,,0.00,WeatherDisplay:10.37,2013-05-22 09:21:00,
2013-05-22 04:26:00,67.1,0.0,29.69,SSE,154,9.2,9.2,0,0.00,CLR,,0.00,WeatherDisplay:10.37,2013-05-22 09:26:00,
2013-05-22 04:31:00,67.1,0.0,29.69,SSW,192,8.7,8.7,0,0.00,CLR,,0.00,WeatherDisplay:10.37,2013-05-22 09:31:00,
2013-05-22 04:36:00,67.1,0.0,29.69,South,172,9.2,9.2,0,0.00,CLR,,0.00,WeatherDisplay:10.37,2013-05-22 09:36:00,
2013-05-22 04:41:00,67.0,0.0,29.69,South,185,11.5,11.5,0,0.00,CLR,,0.00,WeatherDisplay:10.37,2013-05-22 09:41:00,
2013-05-22 04:46:00,67.0,0.0,29.69,SSW,193,6.9,6.9,0,0.00,CLR,,0.00,WeatherDisplay:10.37,2013-05-22 09:46:00,
2013-05-22 04:51:00,66.9,0.0,29.69,SSW,192,4.6,4.6,0,0.00,CLR,,0.00,WeatherDisplay:10.37,2013-05-22 09:51:00,
2013-05-22 04:56:00,66.9,0.0,29.69,SW,233,9.2,9.2,0,0.00,CLR,,0.00,WeatherDisplay:10.37,2013-05-22 09:56:00,
2013-05-22 05:01:00,67.0,0.0,29.69,SSW,203,11.5,11.5,0,0.00,CLR,,0.00,WeatherDisplay:10.37,2013-05-22 10:01:00,
2013-05-22 05:06:00,66.9,0.0,29.69,SSW,192,8.1,8.1,0,0.00,CLR,,0.00,WeatherDisplay:10.37,2013-05-22 10:06:00,
2013-05-22 05:11:00,66.8,0.0,29.69,South,184,9.4,9.4,0,0.00,CLR,,0.00,WeatherDisplay:10.37,2013-05-22 10:11:00,
2013-05-22 05:16:00,66.7,0.0,29.69,South,176,9.2,9.2,0,0.00,CLR,,0.00,WeatherDisplay:10.37,2013-05-22 10:16:00,
2013-05-22 05:21:00,66.7,0.0,29.69,SSW,198,8.4,8.4,0,0.00,CLR,,0.00,WeatherDisplay:10.37,2013-05-22 10:21:00,
2013-05-22 05:26:00,66.5,0.0,29.69,SSW,199,6.9,6.9,0,0.00,CLR,,0.00,WeatherDisplay:10.37,2013-05-22 10:26:00,
2013-05-22 05:31:00,66.1,0.0,29.69,South,176,9.6,9.6,0,0.00,CLR,,0.00,WeatherDisplay:10.37,2013-05-22 10:31:00,
2013-05-22 05:36:00,66.0,0.0,29.69,SSE,150,9.2,9.2,0,0.00,CLR,,0.00,WeatherDisplay:10.37,2013-05-22 10:36:00,
2013-05-22 05:41:00,65.8,0.0,29.69,SSE,152,13.8,13.8,0,0.00,CLR,,0.00,WeatherDisplay:10.37,2013-05-22 10:41:00,
2013-05-22 05:46:00,65.7,0.0,29.69,South,189,0.0,0.0,0,0.00,CLR,,0.00,WeatherDisplay:10.37,2013-05-22 10:46:00,
2013-05-22 05:51:00,65.4,0.0,29.69,SE,137,10.4,10.4,0,0.00,CLR,,0.00,WeatherDisplay:10.37,2013-05-22 10:51:00,
2013-05-22 05:56:00,65.3,0.0,29.70,ESE,117,5.8,5.8,0,0.00,CLR,,0.00,WeatherDisplay:10.37,2013-05-22 10:56:00,
2013-05-22 06:01:00,65.2,0.0,29.70,SSW,200,9.2,9.2,0,0.00,CLR,,0.00,WeatherDisplay:10.37,2013-05-22 11:01:00,
2013-05-22 06:06:00,65.1,0.0,29.70,South,188,11.7,11.7,0,0.00,CLR,,0.00,WeatherDisplay:10.37,2013-05-22 11:06:00,
2013-05-22 06:11:00,65.1,0.0,29.70,SE,126,8.1,8.1,0,0.00,CLR,,0.00,WeatherDisplay:10.37,2013-05-22 11:11:00,
2013-05-22 06:16:00,65.1,0.0,29.70,South,182,12.2,12.2,0,0.00,CLR,,0.00,WeatherDisplay:10.37,2013-05-22 11:16:00,
2013-05-22 06:21:00,65.0,0.0,29.69,SSE,152,6.9,6.9,0,0.00,CLR,,0.00,WeatherDisplay:10.37,2013-05-22 11:21:00,
2013-05-22 06:26:00,65.2,0.0,29.69,SSE,161,4.6,0.0,0,0.00,CLR,,0.00,WeatherDisplay:10.37,2013-05-22 11:26:00,
2013-05-22 06:31:00,65.2,0.0,29.69,South,182,10.4,10.4,0,0.00,CLR,,0.00,WeatherDisplay:10.37,2013-05-22 11:31:00,
2013-05-22 06:36:00,65.3,0.0,29.69,SSW,205,6.9,6.9,0,0.00,CLR,,0.00,WeatherDisplay:10.37,2013-05-22 11:36:00,
2013-05-22 06:41:00,65.4,0.0,29.69,SSE,161,9.2,9.2,0,0.00,CLR,,0.00,WeatherDisplay:10.37,2013-05-22 11:41:00,
2013-05-22 06:46:00,65.4,0.0,29.69,South,191,8.1,8.1,0,0.00,CLR,,0.00,WeatherDisplay:10.37,2013-05-22 11:46:00,
2013-05-22 06:51:00,65.6,0.0,29.68,SE,131,6.9,6.9,0,0.00,CLR,,0.00,WeatherDisplay:10.37,2013-05-22 11:51:00,
2013-05-22 06:56:00,65.7,0.0,29.68,SE,131,0.0,0.0,0,0.00,CLR,,0.00,WeatherDisplay:10.37,2013-05-22 11:56:00,
2013-05-22 07:01:00,66.0,0.0,29.67,SSE,155,0.0,0.0,0,0.00,CLR,,0.00,WeatherDisplay:10.37,2013-05-22 12:01:00,
2013-05-22 07:06:00,66.3,0.0,29.67,SSE,150,3.5,0.0,0,0.00,CLR,,0.00,WeatherDisplay:10.37,2013-05-22 12:06:00,
2013-05-22 07:11:00,66.1,0.0,29.67,SSE,162,3.5,3.5,0,0.00,CLR,,0.00,WeatherDisplay:10.37,2013-05-22 12:11:00,
2013-05-22 07:16:00,66.1,0.0,29.67,SSE,161,5.8,5.8,0,0.00,CLR,,0.00,WeatherDisplay:10.37,2013-05-22 12:16:00,
2013-05-22 07:21:00,66.1,0.0,29.66,SE,145,3.5,3.5,0,0.00,CLR,,0.00,WeatherDisplay:10.37,2013-05-22 12:21:00,
2013-05-22 07:26:00,66.3,0.0,29.65,ESE,110,0.0,0.0,0,0.00,CLR,,0.00,WeatherDisplay:10.37,2013-05-22 12:26:00,
2013-05-22 07:31:00,66.3,0.0,29.65,ESE,110,0.0,0.0,0,0.00,CLR,,0.00,WeatherDisplay:10.37,2013-05-22 12:31:00,
2013-05-22 07:36:00,66.8,0.0,29.64,ESE,121,0.0,0.0,0,0.00,CLR,,0.00,WeatherDisplay:10.37,2013-05-22 12:36:00,
2013-05-22 07:41:00,66.3,0.0,29.64,ESE,106,0.0,0.0,0,0.00,CLR,,0.00,WeatherDisplay:10.37,2013-05-22 12:41:00,
2013-05-22 07:46:00,66.3,0.0,29.65,ESE,106,0.0,0.0,0,0.00,CLR,,0.00,WeatherDisplay:10.37,2013-05-22 12:46:00,
2013-05-22 07:51:00,66.3,0.0,29.65,ESE,117,4.6,0.0,0,0.00,CLR,,0.00,WeatherDisplay:10.37,2013-05-22 12:51:00,
2013-05-22 07:56:00,66.6,0.0,29.65,SSE,165,6.9,6.9,0,0.00,CLR,,0.00,WeatherDisplay:10.37,2013-05-22 12:56:00,
2013-05-22 08:01:00,67.4,0.0,29.65,SSE,152,4.6,4.6,0,0.00,CLR,,0.00,WeatherDisplay:10.37,2013-05-22 13:01:00,
2013-05-22 08:06:00,67.4,0.0,29.66,ESE,109,0.0,0.6,0,0.00,CLR,,0.00,WeatherDisplay:10.37,2013-05-22 13:06:00,
2013-05-22 08:11:00,67.9,0.0,29.67,South,188,11.5,11.5,0,0.00,CLR,,0.00,WeatherDisplay:10.37,2013-05-22 13:11:00,
2013-05-22 08:16:00,68.6,0.0,29.67,SE,124,6.5,6.5,0,0.00,CLR,,0.00,WeatherDisplay:10.37,2013-05-22 13:16:00,
2013-05-22 08:21:00,68.8,0.0,29.68,East,93,9.2,9.2,0,0.00,CLR,,0.00,WeatherDisplay:10.37,2013-05-22 13:21:00,
2013-05-22 08:26:00,68.7,0.0,29.68,SSE,158,13.8,13.8,0,0.00,CLR,,0.00,WeatherDisplay:10.37,2013-05-22 13:26:00,
2013-05-22 08:31:00,69.1,0.0,29.68,SSE,158,14.5,14.5,0,0.00,CLR,,0.00,WeatherDisplay:10.37,2013-05-22 13:31:00,
2013-05-22 08:36:00,69.1,0.0,29.69,SE,144,9.2,9.2,0,0.00,CLR,,0.00,WeatherDisplay:10.37,2013-05-22 13:36:00,
2013-05-22 08:41:00,69.2,0.0,29.69,SW,229,12.7,12.7,0,0.00,CLR,,0.00,WeatherDisplay:10.37,2013-05-22 13:41:00,
2013-05-22 08:46:00,69.3,0.0,29.69,South,174,8.7,8.7,0,0.00,CLR,,0.00,WeatherDisplay:10.37,2013-05-22 13:46:00,
2013-05-22 08:51:00,69.5,0.0,29.69,SSW,210,16.1,16.1,0,0.00,CLR,,0.00,WeatherDisplay:10.37,2013-05-22 13:51:00,
2013-05-22 08:56:00,70.1,0.0,29.69,South,191,12.7,12.7,0,0.00,CLR,,0.00,WeatherDisplay:10.37,2013-05-22 13:56:00,
2013-05-22 09:01:00,70.2,0.0,29.69,SE,133,10.4,10.4,0,0.00,CLR,,0.00,WeatherDisplay:10.37,2013-05-22 14:01:00,
2013-05-22 09:06:00,70.1,0.0,29.69,South,178,10.4,10.4,0,0.00,CLR,,0.00,WeatherDisplay:10.37,2013-05-22 14:06:00,
2013-05-22 09:11:00,70.1,0.0,29.69,SSE,164,15.0,15.0,0,0.00,CLR,,0.00,WeatherDisplay:10.37,2013-05-22 14:11:00,
2013-05-22 09:16:00,70.0,0.0,29.69,South,184,18.4,18.4,0,0.00,CLR,,0.00,WeatherDisplay:10.37,2013-05-22 14:16:00,
2013-05-22 09:21:00,70.0,0.0,29.69,SE,138,11.5,11.5,0,0.00,CLR,,0.00,WeatherDisplay:10.37,2013-05-22 14:21:00,
2013-05-22 09:26:00,70.3,0.0,29.69,SSW,210,8.1,8.1,0,0.00,CLR,,0.00,WeatherDisplay:10.37,2013-05-22 14:26:00,
2013-05-22 09:31:00,70.5,0.0,29.69,South,175,15.0,15.0,0,0.00,CLR,,0.00,WeatherDisplay:10.37,2013-05-22 14:31:00,
2013-05-22 09:36:00,70.5,0.0,29.69,SE,145,13.8,13.8,0,0.00,CLR,,0.00,WeatherDisplay:10.37,2013-05-22 14:36:00,
2013-05-22 09:41:00,70.6,0.0,29.69,SSW,195,17.3,17.3,0,0.00,CLR,,0.00,WeatherDisplay:10.37,2013-05-22 14:41:00,
2013-05-22 09:46:00,70.5,0.0,29.69,South,181,17.3,17.3,0,0.00,CLR,,0.00,WeatherDisplay:10.37,2013-05-22 14:46:00,
2013-05-22 09:51:00,70.1,0.0,29.69,SSW,202,11.5,11.5,0,0.00,CLR,,0.00,WeatherDisplay:10.37,2013-05-22 14:51:00,
2013-05-22 09:56:00,70.0,0.0,29.69,South,184,10.4,10.4,0,0.00,CLR,,0.00,WeatherDisplay:10.37,2013-05-22 14:56:00,
2013-05-22 10:01:00,70.5,0.0,29.69,SSW,209,11.5,11.5,0,0.00,CLR,,0.00,WeatherDisplay:10.37,2013-05-22 15:01:00,
2013-05-22 10:06:00,70.4,0.0,29.69,SE,137,15.0,15.0,0,0.00,CLR,,0.00,WeatherDisplay:10.37,2013-05-22 15:06:00,
2013-05-22 10:11:00,70.9,0.0,29.69,SE,138,14.2,14.2,0,0.00,CLR,,0.00,WeatherDisplay:10.37,2013-05-22 15:11:00,
2013-05-22 10:16:00,71.0,0.0,29.69,SSW,206,9.2,9.2,0,0.00,CLR,,0.00,WeatherDisplay:10.37,2013-05-22 15:16:00,
2013-05-22 10:21:00,71.7,0.0,29.69,SW,219,9.2,9.2,0,0.00,CLR,,0.00,WeatherDisplay:10.37,2013-05-22 15:21:00,
2013-05-22 10:26:00,72.5,0.0,29.69,South,178,12.7,12.7,0,0.00,CLR,,0.00,WeatherDisplay:10.37,2013-05-22 15:26:00,
2013-05-22 10:31:00,71.5,0.0,29.69,East,79,11.5,11.5,0,0.00,CLR,,0.00,WeatherDisplay:10.37,2013-05-22 15:31:00,
2013-05-22 10:36:00,70.9,0.0,29.69,SE,130,9.2,9.2,0,0.00,CLR,,0.00,WeatherDisplay:10.37,2013-05-22 15:36:00,
2013-05-22 10:41:00,70.6,0.0,29.69,South,174,16.1,16.1,0,0.00,CLR,,0.00,WeatherDisplay:10.37,2013-05-22 15:41:00,
2013-05-22 10:46:00,72.1,0.0,29.69,South,174,10.8,10.8,0,0.00,CLR,,0.00,WeatherDisplay:10.37,2013-05-22 15:46:00,
2013-05-22 10:51:00,71.6,0.0,29.69,SSE,148,11.5,11.5,0,0.00,CLR,,0.00,WeatherDisplay:10.37,2013-05-22 15:51:00,
2013-05-22 10:56:00,71.5,0.0,29.69,SSE,160,16.1,16.1,0,0.00,CLR,,0.00,WeatherDisplay:10.37,2013-05-22 15:56:00,
2013-05-22 11:01:00,72.4,0.0,29.69,SSE,168,9.2,9.2,0,0.00,CLR,,0.00,WeatherDisplay:10.37,2013-05-22 16:01:00,
2013-05-22 11:06:00,72.2,0.0,29.69,SSW,198,8.8,8.8,0,0.00,CLR,,0.00,WeatherDisplay:10.37,2013-05-22 16:06:00,
2013-05-22 11:11:00,72.0,0.0,29.69,SSW,203,12.7,12.7,0,0.00,CLR,,0.00,WeatherDisplay:10.37,2013-05-22 16:11:00,
2013-05-22 11:16:00,72.5,0.0,29.69,SSE,147,9.0,9.0,0,0.00,CLR,,0.00,WeatherDisplay:10.37,2013-05-22 16:16:00,
2013-05-22 11:21:00,72.6,0.0,29.69,South,171,5.8,5.8,0,0.00,CLR,,0.00,WeatherDisplay:10.37,2013-05-22 16:21:00,
2013-05-22 11:26:00,72.6,0.0,29.69,SW,215,10.4,10.4,0,0.00,CLR,,0.00,WeatherDisplay:10.37,2013-05-22 16:26:00,
2013-05-22 11:31:00,73.1,0.0,29.69,SSW,193,8.1,8.1,0,0.00,CLR,,0.00,WeatherDisplay:10.37,2013-05-22 16:31:00,
2013-05-22 11:36:00,73.5,0.0,29.70,SSE,147,12.7,12.7,0,0.00,CLR,,0.00,WeatherDisplay:10.37,2013-05-22 16:36:00,
2013-05-22 11:41:00,73.0,0.0,29.69,South,175,5.8,5.8,0,0.00,CLR,,0.00,WeatherDisplay:10.37,2013-05-22 16:41:00,
2013-05-22 11:46:00,72.7,0.0,29.70,SSW,202,13.8,13.8,0,0.00,CLR,,0.00,WeatherDisplay:10.37,2013-05-22 16:46:00,
2013-05-22 11:51:00,72.9,0.0,29.70,South,171,12.4,12.4,0,0.00,CLR,,0.00,WeatherDisplay:10.37,2013-05-22 16:51:00,
2013-05-22 11:56:00,72.4,0.0,29.70,NW,306,11.5,11.5,0,0.00,CLR,,0.00,WeatherDisplay:10.37,2013-05-22 16:56:00,
2013-05-22 12:01:00,75.8,0.0,29.69,South,171,10.4,10.4,0,0.00,CLR,,0.00,WeatherDisplay:10.37,2013-05-22 17:01:00,
2013-05-22 12:06:00,75.4,0.0,29.69,NW,306,12.7,12.7,0,0.00,CLR,,0.00,WeatherDisplay:10.37,2013-05-22 17:06:00,
2013-05-22 12:11:00,76.2,0.0,29.69,WNW,287,17.3,17.3,0,0.00,CLR,,0.00,WeatherDisplay:10.37,2013-05-22 17:11:00,
2013-05-22 12:16:00,75.3,0.0,29.69,SSE,164,10.4,10.4,0,0.00,CLR,,0.00,WeatherDisplay:10.37,2013-05-22 17:16:00,
2013-05-22 12:21:00,74.4,0.0,29.69,SSE,160,11.5,11.5,0,0.00,CLR,,0.00,WeatherDisplay:10.37,2013-05-22 17:21:00,
2013-05-22 12:26:00,74.4,0.0,29.69,SSW,192,15.0,15.0,0,0.00,CLR,,0.00,WeatherDisplay:10.37,2013-05-22 17:26:00,
2013-05-22 12:31:00,75.2,0.0,29.69,WNW,295,6.9,6.9,0,0.00,CLR,,0.00,WeatherDisplay:10.37,2013-05-22 17:31:00,
2013-05-22 12:36:00,74.7,0.0,29.69,South,185,11.5,11.5,0,0.00,CLR,,0.00,WeatherDisplay:10.37,2013-05-22 17:36:00,
2013-05-22 12:41:00,74.8,0.0,29.68,SE,144,12.7,12.7,0,0.00,CLR,,0.00,WeatherDisplay:10.37,2013-05-22 17:41:00,
2013-05-22 12:46:00,75.4,0.0,29.68,SSW,209,15.0,15.0,0,0.00,CLR,,0.00,WeatherDisplay:10.37,2013-05-22 17:46:00,
2013-05-22 12:51:00,75.8,0.0,29.69,SSW,203,13.8,13.8,0,0.00,CLR,,0.00,WeatherDisplay:10.37,2013-05-22 17:51:00,
2013-05-22 12:56:00,75.3,0.0,29.69,ESE,119,20.7,20.7,0,0.00,CLR,,0.00,WeatherDisplay:10.37,2013-05-22 17:56:00,
2013-05-22 13:01:00,74.6,0.0,29.69,SSE,164,5.8,5.8,0,0.00,CLR,,0.00,WeatherDisplay:10.37,2013-05-22 18:01:00,
2013-05-22 13:06:00,73.7,0.0,29.69,WSW,244,17.3,17.3,0,0.00,CLR,,0.00,WeatherDisplay:10.37,2013-05-22 18:06:00,
2013-05-22 13:11:00,68.5,0.0,29.71,SW,223,9.2,9.2,0,0.00,CLR,,0.00,WeatherDisplay:10.37,2013-05-22 18:11:00,
2013-05-22 13:16:00,64.9,0.0,29.72,South,189,13.8,13.8,0,0.02,RA,,0.02,WeatherDisplay:10.37,2013-05-22 18:16:00,
2013-05-22 13:21:00,63.9,0.0,29.72,South,169,6.9,6.9,0,0.04,RA,,0.04,WeatherDisplay:10.37,2013-05-22 18:21:00,
2013-05-22 13:26:00,63.5,0.0,29.72,SW,232,6.7,6.7,0,0.05,RA,,0.05,WeatherDisplay:10.37,2013-05-22 18:26:00,
2013-05-22 13:31:00,63.7,0.0,29.72,WSW,248,5.8,5.8,0,0.05,RA,,0.05,WeatherDisplay:10.37,2013-05-22 18:31:00,
2013-05-22 13:36:00,64.7,0.0,29.72,South,186,4.6,4.6,0,0.05,CLR,,0.05,WeatherDisplay:10.37,2013-05-22 18:36:00,
2013-05-22 13:41:00,65.3,0.0,29.71,SSW,212,3.0,3.0,0,0.05,CLR,,0.05,WeatherDisplay:10.37,2013-05-22 18:41:00,
2013-05-22 13:46:00,66.2,0.0,29.71,SSE,167,4.6,4.6,0,0.05,CLR,,0.05,WeatherDisplay:10.37,2013-05-22 18:46:00,
2013-05-22 13:51:00,65.7,0.0,29.71,South,175,8.1,8.1,0,0.05,CLR,,0.05,WeatherDisplay:10.37,2013-05-22 18:51:00,
2013-05-22 13:56:00,66.9,0.0,29.72,South,185,6.9,6.9,0,0.05,CLR,,0.05,WeatherDisplay:10.37,2013-05-22 18:56:00,
2013-05-22 14:01:00,68.5,0.0,29.71,South,176,4.6,4.6,0,0.05,CLR,,0.05,WeatherDisplay:10.37,2013-05-22 19:01:00,
2013-05-22 14:06:00,69.6,0.0,29.71,SSE,148,6.3,6.3,0,0.05,CLR,,0.05,WeatherDisplay:10.37,2013-05-22 19:06:00,
2013-05-22 14:11:00,70.4,0.0,29.71,SSE,147,5.8,5.8,0,0.05,CLR,,0.05,WeatherDisplay:10.37,2013-05-22 19:11:00,
2013-05-22 14:16:00,70.5,0.0,29.71,South,176,8.1,8.1,0,0.03,CLR,,0.05,WeatherDisplay:10.37,2013-05-22 19:16:00,
2013-05-22 14:21:00,70.9,0.0,29.71,WSW,247,8.1,8.1,0,0.01,CLR,,0.05,WeatherDisplay:10.37,2013-05-22 19:21:00,
2013-05-22 14:26:00,71.1,0.0,29.72,SW,234,6.9,6.9,0,0.00,CLR,,0.05,WeatherDisplay:10.37,2013-05-22 19:26:00,
2013-05-22 14:31:00,71.5,0.0,29.72,SW,215,2.3,0.0,0,0.00,CLR,,0.05,WeatherDisplay:10.37,2013-05-22 19:31:00,
2013-05-22 14:36:00,72.2,0.0,29.72,SSE,161,8.1,8.1,0,0.00,CLR,,0.05,WeatherDisplay:10.37,2013-05-22 19:36:00,
2013-05-22 14:41:00,72.8,0.0,29.71,SE,130,6.9,6.9,0,0.00,CLR,,0.05,WeatherDisplay:10.37,2013-05-22 19:41:00,
2013-05-22 14:46:00,74.4,0.0,29.71,SW,223,5.8,5.8,0,0.00,CLR,,0.05,WeatherDisplay:10.37,2013-05-22 19:46:00,
2013-05-22 14:51:00,75.6,0.0,29.71,West,260,3.5,3.5,0,0.00,CLR,,0.05,WeatherDisplay:10.37,2013-05-22 19:51:00,
2013-05-22 14:56:00,76.0,0.0,29.71,NW,315,5.8,5.8,0,0.00,CLR,,0.05,WeatherDisplay:10.37,2013-05-22 19:56:00,
2013-05-22 15:01:00,75.4,0.0,29.71,NW,323,5.8,5.8,0,0.00,CLR,,0.05,WeatherDisplay:10.37,2013-05-22 20:01:00,
2013-05-22 15:06:00,75.9,0.0,29.71,West,270,6.9,6.9,0,0.00,CLR,,0.05,WeatherDisplay:10.37,2013-05-22 20:06:00,
2013-05-22 15:11:00,76.7,0.0,29.71,SW,233,9.2,9.2,0,0.00,CLR,,0.05,WeatherDisplay:10.37,2013-05-22 20:11:00,
2013-05-22 15:16:00,75.2,0.0,29.71,NW,322,6.9,6.9,0,0.00,CLR,,0.05,WeatherDisplay:10.37,2013-05-22 20:16:00,
2013-05-22 15:21:00,75.3,0.0,29.70,WNW,282,4.7,4.7,0,0.00,CLR,,0.05,WeatherDisplay:10.37,2013-05-22 20:21:00,
2013-05-22 15:26:00,74.8,0.0,29.70,West,264,6.9,6.9,0,0.00,CLR,,0.05,WeatherDisplay:10.37,2013-05-22 20:26:00,
2013-05-22 15:31:00,74.1,0.0,29.70,NW,309,10.4,10.4,0,0.00,CLR,,0.05,WeatherDisplay:10.37,2013-05-22 20:31:00,
2013-05-22 15:36:00,74.9,0.0,29.70,SSE,168,0.0,0.0,0,0.00,CLR,,0.05,WeatherDisplay:10.37,2013-05-22 20:36:00,
2013-05-22 15:41:00,75.0,0.0,29.69,WNW,282,3.5,3.5,0,0.00,CLR,,0.05,WeatherDisplay:10.37,2013-05-22 20:41:00,
2013-05-22 15:46:00,75.8,0.0,29.69,SE,143,0.0,0.0,0,0.00,CLR,,0.05,WeatherDisplay:10.37,2013-05-22 20:46:00,
2013-05-22 15:51:00,75.8,0.0,29.69,SE,145,6.8,6.8,0,0.00,CLR,,0.05,WeatherDisplay:10.37,2013-05-22 20:51:00,
2013-05-22 15:56:00,76.3,0.0,29.69,South,185,5.8,5.8,0,0.00,CLR,,0.05,WeatherDisplay:10.37,2013-05-22 20:56:00,
2013-05-22 16:01:00,77.3,0.0,29.69,SSE,168,4.6,0.0,0,0.00,CLR,,0.05,WeatherDisplay:10.37,2013-05-22 21:01:00,
2013-05-22 16:06:00,77.3,0.0,29.69,ESE,120,5.8,5.8,0,0.00,CLR,,0.05,WeatherDisplay:10.37,2013-05-22 21:06:00,
2013-05-22 16:11:00,77.1,0.0,29.69,SSW,202,0.0,0.0,0,0.00,CLR,,0.05,WeatherDisplay:10.37,2013-05-22 21:11:00,
2013-05-22 16:16:00,76.9,0.0,29.69,SSW,205,5.8,5.8,0,0.00,CLR,,0.05,WeatherDisplay:10.37,2013-05-22 21:16:00,
2013-05-22 16:21:00,76.2,0.0,29.68,South,174,5.8,5.8,0,0.00,CLR,,0.05,WeatherDisplay:10.37,2013-05-22 21:21:00,
2013-05-22 16:26:00,76.1,0.0,29.68,NW,308,9.1,9.1,0,0.00,CLR,,0.05,WeatherDisplay:10.37,2013-05-22 21:26:00,
2013-05-22 16:31:00,74.8,0.0,29.68,ESE,102,12.7,12.7,0,0.00,CLR,,0.05,WeatherDisplay:10.37,2013-05-22 21:31:00,
2013-05-22 16:36:00,74.2,0.0,29.68,WSW,253,8.1,8.1,0,0.00,CLR,,0.05,WeatherDisplay:10.37,2013-05-22 21:36:00,
2013-05-22 16:41:00,74.2,0.0,29.68,South,174,10.4,10.4,0,0.00,CLR,,0.05,WeatherDisplay:10.37,2013-05-22 21:41:00,
2013-05-22 16:46:00,74.1,0.0,29.69,SE,133,6.9,6.9,0,0.00,CLR,,0.05,WeatherDisplay:10.37,2013-05-22 21:46:00,
2013-05-22 16:51:00,73.6,0.0,29.68,SSW,213,5.8,5.8,0,0.00,CLR,,0.05,WeatherDisplay:10.37,2013-05-22 21:51:00,
2013-05-22 16:56:00,73.8,0.0,29.69,South,169,7.7,7.7,0,0.00,CLR,,0.05,WeatherDisplay:10.37,2013-05-22 21:56:00,
2013-05-22 17:01:00,73.5,0.0,29.69,South,169,5.8,5.8,0,0.00,CLR,,0.05,WeatherDisplay:10.37,2013-05-22 22:01:00,
2013-05-22 17:06:00,73.0,0.0,29.69,WSW,240,13.8,13.8,0,0.00,CLR,,0.05,WeatherDisplay:10.37,2013-05-22 22:06:00,
2013-05-22 17:11:00,72.7,0.0,29.69,SW,215,6.9,6.9,0,0.00,CLR,,0.05,WeatherDisplay:10.37,2013-05-22 22:11:00,
2013-05-22 17:16:00,72.7,0.0,29.69,SSW,198,3.5,0.0,0,0.00,CLR,,0.05,WeatherDisplay:10.37,2013-05-22 22:16:00,
2013-05-22 17:21:00,73.0,0.0,29.69,South,176,6.9,6.9,0,0.00,CLR,,0.05,WeatherDisplay:10.37,2013-05-22 22:21:00,
2013-05-22 17:26:00,72.9,0.0,29.69,West,271,10.4,10.4,0,0.00,CLR,,0.05,WeatherDisplay:10.37,2013-05-22 22:26:00,
2013-05-22 17:31:00,72.8,0.0,29.70,West,267,6.9,6.9,0,0.00,CLR,,0.05,WeatherDisplay:10.37,2013-05-22 22:31:00,
2013-05-22 17:36:00,73.3,0.0,29.70,ESE,117,0.0,0.0,0,0.00,CLR,,0.05,WeatherDisplay:10.37,2013-05-22 22:36:00,
2013-05-22 17:41:00,72.8,0.0,29.70,West,260,6.9,6.9,0,0.00,CLR,,0.05,WeatherDisplay:10.37,2013-05-22 22:41:00,
2013-05-22 17:46:00,72.4,0.0,29.70,South,179,4.6,0.0,0,0.00,CLR,,0.05,WeatherDisplay:10.37,2013-05-22 22:46:00,
2013-05-22 17:51:00,72.4,0.0,29.70,SSE,155,11.5,11.5,0,0.00,CLR,,0.05,WeatherDisplay:10.37,2013-05-22 22:51:00,
2013-05-22 17:56:00,72.2,0.0,29.70,West,278,2.3,0.0,0,0.00,CLR,,0.05,WeatherDisplay:10.37,2013-05-22 22:56:00,
2013-05-22 18:01:00,72.1,0.0,29.70,South,175,6.9,6.9,0,0.00,CLR,,0.05,WeatherDisplay:10.37,2013-05-22 23:01:00,
2013-05-22 18:06:00,71.6,0.0,29.70,SW,227,8.3,8.3,0,0.00,CLR,,0.05,WeatherDisplay:10.37,2013-05-22 23:06:00,
2013-05-22 18:11:00,71.4,0.0,29.70,SW,219,7.4,7.4,0,0.00,CLR,,0.05,WeatherDisplay:10.37,2013-05-22 23:11:00,
2013-05-22 18:16:00,71.1,0.0,29.70,NW,315,12.7,12.7,0,0.00,CLR,,0.05,WeatherDisplay:10.37,2013-05-22 23:16:00,
2013-05-22 18:21:00,70.9,0.0,29.70,North,7,10.4,10.4,0,0.00,CLR,,0.05,WeatherDisplay:10.37,2013-05-22 23:21:00,
2013-05-22 18:26:00,70.7,0.0,29.70,West,277,5.8,5.8,0,0.00,CLR,,0.05,WeatherDisplay:10.37,2013-05-22 23:26:00,
2013-05-22 18:31:00,70.5,0.0,29.70,SE,136,9.2,9.2,0,0.00,CLR,,0.05,WeatherDisplay:10.37,2013-05-22 23:31:00,
2013-05-22 18:36:00,70.6,0.0,29.70,South,191,6.9,6.9,0,0.00,CLR,,0.05,WeatherDisplay:10.37,2013-05-22 23:36:00,
2013-05-22 18:41:00,70.5,0.0,29.70,SSE,152,4.2,4.2,0,0.00,CLR,,0.05,WeatherDisplay:10.37,2013-05-22 23:41:00,
2013-05-22 18:46:00,70.4,0.0,29.70,SSE,152,4.6,0.0,0,0.00,CLR,,0.05,WeatherDisplay:10.37,2013-05-22 23:46:00,
2013-05-22 18:51:00,70.4,0.0,29.70,SSE,161,5.8,5.8,0,0.00,CLR,,0.05,WeatherDisplay:10.37,2013-05-22 23:51:00,
2013-05-22 18:56:00,70.4,0.0,29.70,SSW,196,8.6,8.6,0,0.00,CLR,,0.05,WeatherDisplay:10.37,2013-05-22 23:56:00,
2013-05-22 19:01:00,70.2,0.0,29.70,South,176,12.7,12.7,0,0.00,CLR,,0.05,WeatherDisplay:10.37,2013-05-23 00:01:00,
2013-05-22 19:06:00,70.0,0.0,29.70,South,178,10.4,0.0,0,0.00,CLR,,0.05,WeatherDisplay:10.37,2013-05-23 00:06:00,
2013-05-22 19:11:00,69.7,0.0,29.71,SSE,158,4.6,0.0,0,0.00,CLR,,0.05,WeatherDisplay:10.37,2013-05-23 00:11:00,
2013-05-22 19:16:00,69.5,0.0,29.71,SSE,154,0.0,0.0,0,0.00,CLR,,0.05,WeatherDisplay:10.37,2013-05-23 00:16:00,
2013-05-22 19:21:00,69.1,0.0,29.71,South,171,12.7,12.7,0,0.00,CLR,,0.05,WeatherDisplay:10.37,2013-05-23 00:21:00,
2013-05-22 19:26:00,68.8,0.0,29.71,SSE,168,4.6,4.6,0,0.00,CLR,,0.05,WeatherDisplay:10.37,2013-05-23 00:26:00,
2013-05-22 19:31:00,68.6,0.0,29.72,SSE,168,0.0,0.0,0,0.00,CLR,,0.05,WeatherDisplay:10.37,2013-05-23 00:31:00,
2013-05-22 19:36:00,68.5,0.0,29.72,SSE,168,0.0,0.0,0,0.00,CLR,,0.05,WeatherDisplay:10.37,2013-05-23 00:36:00,
2013-05-22 19:41:00,68.3,0.0,29.72,SSE,155,2.9,2.9,0,0.00,CLR,,0.05,WeatherDisplay:10.37,2013-05-23 00:41:00,
2013-05-22 19:46:00,68.2,0.0,29.72,SSE,155,0.0,0.0,0,0.00,CLR,,0.05,WeatherDisplay:10.37,2013-05-23 00:46:00,
2013-05-22 19:51:00,68.1,0.0,29.72,SSE,155,0.0,0.0,0,0.00,CLR,,0.05,WeatherDisplay:10.37,2013-05-23 00:51:00,
2013-05-22 19:56:00,68.0,0.0,29.72,SSE,155,0.0,0.0,0,0.00,CLR,,0.05,WeatherDisplay:10.37,2013-05-23 00:56:00,
2013-05-22 20:01:00,68.0,0.0,29.72,SSE,155,0.0,0.0,0,0.00,CLR,,0.05,WeatherDisplay:10.37,2013-05-23 01:01:00,
2013-05-22 20:06:00,67.9,0.0,29.73,NNW,328,8.1,8.1,0,0.00,CLR,,0.05,WeatherDisplay:10.37,2013-05-23 01:06:00,
2013-05-22 20:11:00,66.7,0.0,29.74,SSW,209,11.5,11.5,0,0.00,CLR,,0.06,WeatherDisplay:10.37,2013-05-23 01:11:00,
2013-05-22 20:16:00,64.4,0.0,29.74,WSW,239,8.1,8.1,0,0.02,RA,,0.07,WeatherDisplay:10.37,2013-05-23 01:16:00,
2013-05-22 20:21:00,63.7,0.0,29.73,SW,229,6.9,6.9,0,0.02,RA,,0.07,WeatherDisplay:10.37,2013-05-23 01:21:00,
2013-05-22 20:26:00,63.2,0.0,29.74,WNW,284,0.0,0.0,0,0.02,,,0.07,WeatherDisplay:10.37,2013-05-23 01:26:00,
2013-05-22 20:31:00,63.2,0.0,29.74,ESE,119,3.5,3.5,0,0.02,CLR,,0.07,WeatherDisplay:10.37,2013-05-23 01:31:00,
2013-05-22 20:36:00,63.0,0.0,29.74,ESE,119,3.5,0.0,0,0.02,CLR,,0.07,WeatherDisplay:10.37,2013-05-23 01:36:00,
2013-05-22 20:41:00,63.0,0.0,29.74,SE,141,3.5,3.5,0,0.02,CLR,,0.07,WeatherDisplay:10.37,2013-05-23 01:41:00,
2013-05-22 20:46:00,62.5,0.0,29.74,SE,131,0.0,0.0,0,0.02,CLR,,0.07,WeatherDisplay:10.37,2013-05-23 01:46:00,
2013-05-22 20:51:00,62.8,0.0,29.74,SE,131,0.0,0.0,0,0.02,CLR,,0.07,WeatherDisplay:10.37,2013-05-23 01:51:00,
2013-05-22 20:56:00,62.5,0.0,29.74,South,179,0.0,0.0,0,0.02,CLR,,0.07,WeatherDisplay:10.37,2013-05-23 01:56:00,
2013-05-22 21:01:00,62.6,0.0,29.75,SSW,199,2.7,2.7,0,0.02,CLR,,0.07,WeatherDisplay:10.37,2013-05-23 02:01:00,
2013-05-22 21:06:00,62.6,0.0,29.75,SSW,199,0.0,0.0,0,0.02,CLR,,0.07,WeatherDisplay:10.37,2013-05-23 02:06:00,
2013-05-22 21:11:00,62.6,0.0,29.75,WNW,294,0.0,0.0,0,0.02,CLR,,0.07,WeatherDisplay:10.37,2013-05-23 02:11:00,
2013-05-22 21:16:00,62.6,0.0,29.75,SSE,148,0.0,0.0,0,0.00,CLR,,0.07,WeatherDisplay:10.37,2013-05-23 02:16:00,
2013-05-22 21:21:00,62.3,0.0,29.76,SSE,148,0.0,0.0,0,0.00,CLR,,0.07,WeatherDisplay:10.37,2013-05-23 02:21:00,
2013-05-22 21:26:00,62.6,0.0,29.76,SSE,147,0.0,0.0,0,0.00,CLR,,0.07,WeatherDisplay:10.37,2013-05-23 02:26:00,
2013-05-22 21:31:00,62.7,0.0,29.76,SSE,147,0.0,0.0,0,0.00,CLR,,0.07,WeatherDisplay:10.37,2013-05-23 02:31:00,
2013-05-22 21:36:00,62.3,0.0,29.76,South,171,0.0,0.0,0,0.00,CLR,,0.07,WeatherDisplay:10.37,2013-05-23 02:36:00,
2013-05-22 21:41:00,62.4,0.0,29.76,South,171,0.0,0.0,0,0.00,CLR,,0.07,WeatherDisplay:10.37,2013-05-23 02:41:00,
2013-05-22 21:46:00,62.4,0.0,29.77,South,171,0.0,0.0,0,0.00,CLR,,0.07,WeatherDisplay:10.37,2013-05-23 02:46:00,
2013-05-22 21:51:00,62.3,0.0,29.77,South,171,0.0,0.0,0,0.00,CLR,,0.07,WeatherDisplay:10.37,2013-05-23 02:51:00,
2013-05-22 21:56:00,62.2,0.0,29.77,South,171,0.0,0.0,0,0.00,CLR,,0.07,WeatherDisplay:10.37,2013-05-23 02:56:00,
2013-05-22 22:01:00,61.8,0.0,29.77,South,171,0.0,0.0,0,0.00,CLR,,0.07,WeatherDisplay:10.37,2013-05-23 03:01:00,
2013-05-22 22:06:00,62.0,0.0,29.77,South,171,0.0,0.0,0,0.00,CLR,,0.07,WeatherDisplay:10.37,2013-05-23 03:06:00,
2013-05-22 22:11:00,61.8,0.0,29.77,South,171,0.0,0.0,0,0.00,CLR,,0.07,WeatherDisplay:10.37,2013-05-23 03:11:00,
2013-05-22 22:16:00,61.7,0.0,29.77,South,171,0.0,0.0,0,0.00,CLR,,0.07,WeatherDisplay:10.37,2013-05-23 03:16:00,
2013-05-22 22:21:00,61.7,0.0,29.77,South,171,0.0,0.0,0,0.00,CLR,,0.07,WeatherDisplay:10.37,2013-05-23 03:21:00,
2013-05-22 22:26:00,62.1,0.0,29.77,South,171,0.0,0.0,0,0.00,CLR,,0.07,WeatherDisplay:10.37,2013-05-23 03:26:00,
2013-05-22 22:31:00,62.1,0.0,29.77,South,171,0.0,0.0,0,0.00,CLR,,0.07,WeatherDisplay:10.37,2013-05-23 03:31:00,
2013-05-22 22:36:00,62.2,0.0,29.77,South,171,0.0,0.0,0,0.00,CLR,,0.07,WeatherDisplay:10.37,2013-05-23 03:36:00,
2013-05-22 22:41:00,62.4,0.0,29.77,South,171,0.0,0.0,0,0.00,CLR,,0.07,WeatherDisplay:10.37,2013-05-23 03:41:00,
2013-05-22 22:46:00,62.5,0.0,29.77,South,171,0.0,0.0,0,0.00,CLR,,0.07,WeatherDisplay:10.37,2013-05-23 03:46:00,
2013-05-22 22:51:00,62.3,0.0,29.78,South,171,0.0,0.0,0,0.00,CLR,,0.07,WeatherDisplay:10.37,2013-05-23 03:51:00,
2013-05-22 22:56:00,62.5,0.0,29.78,South,171,0.0,0.0,0,0.00,CLR,,0.07,WeatherDisplay:10.37,2013-05-23 03:56:00,
2013-05-22 23:01:00,62.1,0.0,29.78,South,171,0.0,0.0,0,0.00,CLR,,0.07,WeatherDisplay:10.37,2013-05-23 04:01:00,
2013-05-22 23:06:00,62.6,0.0,29.78,South,171,0.0,0.0,0,0.00,CLR,,0.07,WeatherDisplay:10.37,2013-05-23 04:06:00,
2013-05-22 23:11:00,62.1,0.0,29.78,South,171,0.0,0.0,0,0.00,CLR,,0.07,WeatherDisplay:10.37,2013-05-23 04:11:00,
2013-05-22 23:16:00,62.3,0.0,29.78,SE,145,0.0,0.0,0,0.00,CLR,,0.07,WeatherDisplay:10.37,2013-05-23 04:16:00,
2013-05-22 23:21:00,62.2,0.0,29.78,WNW,285,2.9,2.9,0,0.00,CLR,,0.07,WeatherDisplay:10.37,2013-05-23 04:21:00,
2013-05-22 23:26:00,62.7,0.0,29.78,WNW,284,4.6,0.0,0,0.00,CLR,,0.07,WeatherDisplay:10.37,2013-05-23 04:26:00,
2013-05-22 23:31:00,62.3,0.0,29.78,WNW,287,4.6,4.6,0,0.00,CLR,,0.07,WeatherDisplay:10.37,2013-05-23 04:31:00,
2013-05-22 23:36:00,62.4,0.0,29.78,WNW,284,8.1,8.1,0,0.00,CLR,,0.07,WeatherDisplay:10.37,2013-05-23 04:36:00,
2013-05-22 23:41:00,62.3,0.0,29.78,West,268,0.0,0.0,0,0.00,CLR,,0.07,WeatherDisplay:10.37,2013-05-23 04:41:00,
2013-05-22 23:46:00,62.0,0.0,29.78,West,267,8.1,8.1,0,0.00,CLR,,0.07,WeatherDisplay:10.37,2013-05-23 04:46:00,
2013-05-22 23:51:00,62.1,0.0,29.78,NW,308,0.0,0.0,0,0.00,CLR,,0.07,WeatherDisplay:10.37,2013-05-23 04:51:00,
2013-05-22 23:56:00,61.9,0.0,29.78,SSW,202,0.0,0.0,0,0.00,CLR,,0.07,WeatherDisplay:10.37,2013-05-23 04:56:00,